sensor_id;sensor_type;location;lat;lon;timestamp;P1;durP1;ratioP1;P2;durP2;ratioP2
703;SDS011;335;48.694;9.120;2024-03-07T00:02:20;31.50;;;26.23;;
703;SDS011;335;48.694;9.120;2024-03-07T00:05:05;36.70;;;28.40;;
703;SDS011;335;48.694;9.120;2024-03-07T00:07:53;33.27;;;27.33;;
703;SDS011;335;48.694;9.120;2024-03-07T00:10:38;33.13;;;27.63;;
703;SDS011;335;48.694;9.120;2024-03-07T00:13:24;32.90;;;27.17;;
703;SDS011;335;48.694;9.120;2024-03-07T00:16:09;34.80;;;25.27;;
703;SDS011;335;48.694;9.120;2024-03-07T00:18:55;35.25;;;29.00;;
703;SDS011;335;48.694;9.120;2024-03-07T00:21:40;33.45;;;27.60;;
703;SDS011;335;48.694;9.120;2024-03-07T00:24:26;41.42;;;30.45;;
703;SDS011;335;48.694;9.120;2024-03-07T00:27:14;43.58;;;31.80;;
703;SDS011;335;48.694;9.120;2024-03-07T00:29:59;32.25;;;27.17;;
703;SDS011;335;48.694;9.120;2024-03-07T00:32:45;44.83;;;31.73;;
703;SDS011;335;48.694;9.120;2024-03-07T00:35:32;38.63;;;30.92;;
703;SDS011;335;48.694;9.120;2024-03-07T00:38:17;40.42;;;31.27;;
703;SDS011;335;48.694;9.120;2024-03-07T00:41:02;40.20;;;31.67;;
703;SDS011;335;48.694;9.120;2024-03-07T00:43:48;37.50;;;30.42;;
703;SDS011;335;48.694;9.120;2024-03-07T00:46:33;43.92;;;31.42;;
703;SDS011;335;48.694;9.120;2024-03-07T00:49:18;41.65;;;33.15;;
703;SDS011;335;48.694;9.120;2024-03-07T00:52:04;38.75;;;32.58;;
703;SDS011;335;48.694;9.120;2024-03-07T00:54:51;46.50;;;35.47;;
703;SDS011;335;48.694;9.120;2024-03-07T00:57:36;40.42;;;32.13;;
703;SDS011;335;48.694;9.120;2024-03-07T01:00:22;35.63;;;29.42;;
703;SDS011;335;48.694;9.120;2024-03-07T01:03:07;39.10;;;32.92;;
703;SDS011;335;48.694;9.120;2024-03-07T01:05:55;39.33;;;31.88;;
703;SDS011;335;48.694;9.120;2024-03-07T01:08:41;40.10;;;34.40;;
703;SDS011;335;48.694;9.120;2024-03-07T01:11:26;39.78;;;31.52;;
703;SDS011;335;48.694;9.120;2024-03-07T01:14:11;42.70;;;34.38;;
703;SDS011;335;48.694;9.120;2024-03-07T01:16:58;42.13;;;32.83;;
703;SDS011;335;48.694;9.120;2024-03-07T01:19:43;45.83;;;33.88;;
703;SDS011;335;48.694;9.120;2024-03-07T01:22:29;43.03;;;34.05;;
703;SDS011;335;48.694;9.120;2024-03-07T01:25:14;44.85;;;34.55;;
703;SDS011;335;48.694;9.120;2024-03-07T01:28:00;40.85;;;33.63;;
703;SDS011;335;48.694;9.120;2024-03-07T01:30:50;40.28;;;32.60;;
703;SDS011;335;48.694;9.120;2024-03-07T01:33:36;42.47;;;32.55;;
703;SDS011;335;48.694;9.120;2024-03-07T01:36:21;41.33;;;32.67;;
703;SDS011;335;48.694;9.120;2024-03-07T01:39:06;42.97;;;34.15;;
703;SDS011;335;48.694;9.120;2024-03-07T01:41:52;44.22;;;35.72;;
703;SDS011;335;48.694;9.120;2024-03-07T01:44:38;45.72;;;33.67;;
703;SDS011;335;48.694;9.120;2024-03-07T01:47:25;44.10;;;34.33;;
703;SDS011;335;48.694;9.120;2024-03-07T01:50:10;41.50;;;32.17;;
703;SDS011;335;48.694;9.120;2024-03-07T01:52:56;44.92;;;34.00;;
703;SDS011;335;48.694;9.120;2024-03-07T01:55:42;40.50;;;33.40;;
703;SDS011;335;48.694;9.120;2024-03-07T01:58:29;44.28;;;34.95;;
703;SDS011;335;48.694;9.120;2024-03-07T02:01:16;47.03;;;36.42;;
703;SDS011;335;48.694;9.120;2024-03-07T02:04:01;42.92;;;32.95;;
703;SDS011;335;48.694;9.120;2024-03-07T02:06:50;41.95;;;33.30;;
703;SDS011;335;48.694;9.120;2024-03-07T02:09:38;45.40;;;33.53;;
703;SDS011;335;48.694;9.120;2024-03-07T02:12:23;42.58;;;32.55;;
703;SDS011;335;48.694;9.120;2024-03-07T02:15:09;45.35;;;33.60;;
703;SDS011;335;48.694;9.120;2024-03-07T02:17:54;41.33;;;33.08;;
703;SDS011;335;48.694;9.120;2024-03-07T02:20:46;40.92;;;33.17;;
703;SDS011;335;48.694;9.120;2024-03-07T02:23:31;39.38;;;29.80;;
703;SDS011;335;48.694;9.120;2024-03-07T02:26:17;40.45;;;33.17;;
703;SDS011;335;48.694;9.120;2024-03-07T02:29:03;39.80;;;30.75;;
703;SDS011;335;48.694;9.120;2024-03-07T02:31:50;41.15;;;31.75;;
703;SDS011;335;48.694;9.120;2024-03-07T02:34:36;40.35;;;32.92;;
703;SDS011;335;48.694;9.120;2024-03-07T02:37:22;42.83;;;33.25;;
703;SDS011;335;48.694;9.120;2024-03-07T02:40:07;45.45;;;34.53;;
703;SDS011;335;48.694;9.120;2024-03-07T02:42:53;43.15;;;33.88;;
703;SDS011;335;48.694;9.120;2024-03-07T02:45:38;42.40;;;33.30;;
703;SDS011;335;48.694;9.120;2024-03-07T02:48:24;48.10;;;35.63;;
703;SDS011;335;48.694;9.120;2024-03-07T02:51:09;38.55;;;31.42;;
703;SDS011;335;48.694;9.120;2024-03-07T02:53:54;44.35;;;33.72;;
703;SDS011;335;48.694;9.120;2024-03-07T02:56:40;44.88;;;33.33;;
703;SDS011;335;48.694;9.120;2024-03-07T02:59:25;42.33;;;34.45;;
703;SDS011;335;48.694;9.120;2024-03-07T03:02:10;41.17;;;33.13;;
703;SDS011;335;48.694;9.120;2024-03-07T03:04:56;46.55;;;33.03;;
703;SDS011;335;48.694;9.120;2024-03-07T03:07:41;47.20;;;35.15;;
703;SDS011;335;48.694;9.120;2024-03-07T03:10:27;47.20;;;34.33;;
703;SDS011;335;48.694;9.120;2024-03-07T03:13:15;47.17;;;33.75;;
703;SDS011;335;48.694;9.120;2024-03-07T03:16:01;44.08;;;33.00;;
703;SDS011;335;48.694;9.120;2024-03-07T03:18:50;44.80;;;33.00;;
703;SDS011;335;48.694;9.120;2024-03-07T03:21:36;45.35;;;32.92;;
703;SDS011;335;48.694;9.120;2024-03-07T03:24:22;46.58;;;34.65;;
703;SDS011;335;48.694;9.120;2024-03-07T03:27:08;48.92;;;33.67;;
703;SDS011;335;48.694;9.120;2024-03-07T03:29:53;41.38;;;32.70;;
703;SDS011;335;48.694;9.120;2024-03-07T03:32:39;55.88;;;39.25;;
703;SDS011;335;48.694;9.120;2024-03-07T03:35:25;49.15;;;35.67;;
703;SDS011;335;48.694;9.120;2024-03-07T03:38:10;56.70;;;37.88;;
703;SDS011;335;48.694;9.120;2024-03-07T03:40:56;50.63;;;36.35;;
703;SDS011;335;48.694;9.120;2024-03-07T03:43:41;61.97;;;39.80;;
703;SDS011;335;48.694;9.120;2024-03-07T03:46:26;48.45;;;34.92;;
703;SDS011;335;48.694;9.120;2024-03-07T03:49:12;47.20;;;35.20;;
703;SDS011;335;48.694;9.120;2024-03-07T03:51:57;45.35;;;33.70;;
703;SDS011;335;48.694;9.120;2024-03-07T03:54:44;45.75;;;33.45;;
703;SDS011;335;48.694;9.120;2024-03-07T03:57:30;47.70;;;35.28;;
703;SDS011;335;48.694;9.120;2024-03-07T04:00:15;40.20;;;30.50;;
703;SDS011;335;48.694;9.120;2024-03-07T04:03:01;49.08;;;33.22;;
703;SDS011;335;48.694;9.120;2024-03-07T04:05:48;46.08;;;32.90;;
703;SDS011;335;48.694;9.120;2024-03-07T04:08:34;56.55;;;38.47;;
703;SDS011;335;48.694;9.120;2024-03-07T04:11:21;51.25;;;37.10;;
703;SDS011;335;48.694;9.120;2024-03-07T04:14:07;62.72;;;40.25;;
703;SDS011;335;48.694;9.120;2024-03-07T04:16:52;56.75;;;39.00;;
703;SDS011;335;48.694;9.120;2024-03-07T04:19:42;56.85;;;37.45;;
703;SDS011;335;48.694;9.120;2024-03-07T04:22:28;60.63;;;41.00;;
703;SDS011;335;48.694;9.120;2024-03-07T04:25:13;66.35;;;42.83;;
703;SDS011;335;48.694;9.120;2024-03-07T04:27:59;52.75;;;38.17;;
703;SDS011;335;48.694;9.120;2024-03-07T04:30:44;46.47;;;34.55;;
703;SDS011;335;48.694;9.120;2024-03-07T04:33:30;56.33;;;39.15;;
703;SDS011;335;48.694;9.120;2024-03-07T04:36:15;51.22;;;36.95;;
703;SDS011;335;48.694;9.120;2024-03-07T04:39:00;50.60;;;35.80;;
703;SDS011;335;48.694;9.120;2024-03-07T04:41:51;53.13;;;36.65;;
703;SDS011;335;48.694;9.120;2024-03-07T04:44:37;58.22;;;39.17;;
703;SDS011;335;48.694;9.120;2024-03-07T04:47:24;68.25;;;42.47;;
703;SDS011;335;48.694;9.120;2024-03-07T04:50:09;56.70;;;37.70;;
703;SDS011;335;48.694;9.120;2024-03-07T04:52:57;58.58;;;39.55;;
703;SDS011;335;48.694;9.120;2024-03-07T04:55:43;54.75;;;38.05;;
703;SDS011;335;48.694;9.120;2024-03-07T04:58:28;55.47;;;38.47;;
703;SDS011;335;48.694;9.120;2024-03-07T05:01:13;49.33;;;37.33;;
703;SDS011;335;48.694;9.120;2024-03-07T05:04:00;58.03;;;40.25;;
703;SDS011;335;48.694;9.120;2024-03-07T05:06:50;50.90;;;37.03;;
703;SDS011;335;48.694;9.120;2024-03-07T05:09:35;51.92;;;36.22;;
703;SDS011;335;48.694;9.120;2024-03-07T05:12:20;59.15;;;37.08;;
703;SDS011;335;48.694;9.120;2024-03-07T05:15:06;51.55;;;35.78;;
703;SDS011;335;48.694;9.120;2024-03-07T05:17:54;48.95;;;33.38;;
703;SDS011;335;48.694;9.120;2024-03-07T05:20:41;48.30;;;38.00;;
703;SDS011;335;48.694;9.120;2024-03-07T05:23:26;49.35;;;35.58;;
703;SDS011;335;48.694;9.120;2024-03-07T05:26:16;61.75;;;38.92;;
703;SDS011;335;48.694;9.120;2024-03-07T05:29:02;50.40;;;35.65;;
703;SDS011;335;48.694;9.120;2024-03-07T05:31:52;52.08;;;36.45;;
703;SDS011;335;48.694;9.120;2024-03-07T05:34:38;51.63;;;35.70;;
703;SDS011;335;48.694;9.120;2024-03-07T05:37:25;41.60;;;31.80;;
703;SDS011;335;48.694;9.120;2024-03-07T05:40:12;43.72;;;31.80;;
703;SDS011;335;48.694;9.120;2024-03-07T05:42:57;44.85;;;32.45;;
703;SDS011;335;48.694;9.120;2024-03-07T05:45:44;42.88;;;29.30;;
703;SDS011;335;48.694;9.120;2024-03-07T05:48:30;37.80;;;29.98;;
703;SDS011;335;48.694;9.120;2024-03-07T05:51:15;49.28;;;30.98;;
703;SDS011;335;48.694;9.120;2024-03-07T05:54:01;38.78;;;29.15;;
703;SDS011;335;48.694;9.120;2024-03-07T05:56:51;36.47;;;27.58;;
703;SDS011;335;48.694;9.120;2024-03-07T05:59:36;38.95;;;28.50;;
703;SDS011;335;48.694;9.120;2024-03-07T06:02:21;39.22;;;29.25;;
703;SDS011;335;48.694;9.120;2024-03-07T06:05:07;41.20;;;29.67;;
703;SDS011;335;48.694;9.120;2024-03-07T06:08:00;36.70;;;27.42;;
703;SDS011;335;48.694;9.120;2024-03-07T06:10:49;41.55;;;30.98;;
703;SDS011;335;48.694;9.120;2024-03-07T06:13:35;42.40;;;30.50;;
703;SDS011;335;48.694;9.120;2024-03-07T06:16:20;51.08;;;32.88;;
703;SDS011;335;48.694;9.120;2024-03-07T06:19:06;45.55;;;32.47;;
703;SDS011;335;48.694;9.120;2024-03-07T06:21:52;47.55;;;33.72;;
703;SDS011;335;48.694;9.120;2024-03-07T06:24:39;49.15;;;36.50;;
703;SDS011;335;48.694;9.120;2024-03-07T06:27:25;50.65;;;38.50;;
703;SDS011;335;48.694;9.120;2024-03-07T06:30:22;49.08;;;36.08;;
703;SDS011;335;48.694;9.120;2024-03-07T06:33:08;49.60;;;37.33;;
703;SDS011;335;48.694;9.120;2024-03-07T06:35:55;51.97;;;37.45;;
703;SDS011;335;48.694;9.120;2024-03-07T06:38:40;55.78;;;37.60;;
703;SDS011;335;48.694;9.120;2024-03-07T06:41:26;60.58;;;36.58;;
703;SDS011;335;48.694;9.120;2024-03-07T06:44:11;56.63;;;38.47;;
703;SDS011;335;48.694;9.120;2024-03-07T06:46:57;52.30;;;38.42;;
703;SDS011;335;48.694;9.120;2024-03-07T06:49:43;63.83;;;42.28;;
703;SDS011;335;48.694;9.120;2024-03-07T06:52:28;53.58;;;37.45;;
703;SDS011;335;48.694;9.120;2024-03-07T06:55:17;54.22;;;37.05;;
703;SDS011;335;48.694;9.120;2024-03-07T06:58:03;55.55;;;38.60;;
703;SDS011;335;48.694;9.120;2024-03-07T07:00:49;58.08;;;38.70;;
703;SDS011;335;48.694;9.120;2024-03-07T07:03:38;58.03;;;36.90;;
703;SDS011;335;48.694;9.120;2024-03-07T07:06:24;61.50;;;40.00;;
703;SDS011;335;48.694;9.120;2024-03-07T07:09:11;58.03;;;39.97;;
703;SDS011;335;48.694;9.120;2024-03-07T07:11:56;52.70;;;37.40;;
703;SDS011;335;48.694;9.120;2024-03-07T07:14:41;50.78;;;35.65;;
703;SDS011;335;48.694;9.120;2024-03-07T07:17:27;50.83;;;36.67;;
703;SDS011;335;48.694;9.120;2024-03-07T07:20:14;49.75;;;35.80;;
703;SDS011;335;48.694;9.120;2024-03-07T07:23:00;50.88;;;35.10;;
703;SDS011;335;48.694;9.120;2024-03-07T07:25:48;42.10;;;33.42;;
703;SDS011;335;48.694;9.120;2024-03-07T07:28:34;42.90;;;32.55;;
703;SDS011;335;48.694;9.120;2024-03-07T07:31:21;41.67;;;31.50;;
703;SDS011;335;48.694;9.120;2024-03-07T07:34:06;35.53;;;28.25;;
703;SDS011;335;48.694;9.120;2024-03-07T07:36:52;40.80;;;30.80;;
703;SDS011;335;48.694;9.120;2024-03-07T07:39:38;36.20;;;29.08;;
703;SDS011;335;48.694;9.120;2024-03-07T07:42:23;40.45;;;30.92;;
703;SDS011;335;48.694;9.120;2024-03-07T07:45:09;34.63;;;26.55;;
703;SDS011;335;48.694;9.120;2024-03-07T07:47:58;31.75;;;26.23;;
703;SDS011;335;48.694;9.120;2024-03-07T07:50:43;32.90;;;25.77;;
703;SDS011;335;48.694;9.120;2024-03-07T07:53:29;30.33;;;25.60;;
703;SDS011;335;48.694;9.120;2024-03-07T07:56:14;27.55;;;24.40;;
703;SDS011;335;48.694;9.120;2024-03-07T07:59:00;31.30;;;26.38;;
703;SDS011;335;48.694;9.120;2024-03-07T08:01:49;28.40;;;25.25;;
703;SDS011;335;48.694;9.120;2024-03-07T08:04:35;31.40;;;25.25;;
703;SDS011;335;48.694;9.120;2024-03-07T08:07:20;27.65;;;24.23;;
703;SDS011;335;48.694;9.120;2024-03-07T08:10:06;25.33;;;22.58;;
703;SDS011;335;48.694;9.120;2024-03-07T08:12:51;28.55;;;25.33;;
703;SDS011;335;48.694;9.120;2024-03-07T08:15:37;30.02;;;23.65;;
703;SDS011;335;48.694;9.120;2024-03-07T08:18:22;28.73;;;24.83;;
703;SDS011;335;48.694;9.120;2024-03-07T08:21:07;30.30;;;23.17;;
703;SDS011;335;48.694;9.120;2024-03-07T08:23:55;27.95;;;24.55;;
703;SDS011;335;48.694;9.120;2024-03-07T08:26:43;25.53;;;21.43;;
703;SDS011;335;48.694;9.120;2024-03-07T08:29:29;29.15;;;25.85;;
703;SDS011;335;48.694;9.120;2024-03-07T08:32:15;27.60;;;24.67;;
703;SDS011;335;48.694;9.120;2024-03-07T08:35:00;31.70;;;25.57;;
703;SDS011;335;48.694;9.120;2024-03-07T08:37:52;27.05;;;23.60;;
703;SDS011;335;48.694;9.120;2024-03-07T08:40:39;31.25;;;27.95;;
703;SDS011;335;48.694;9.120;2024-03-07T08:43:24;28.40;;;24.60;;
703;SDS011;335;48.694;9.120;2024-03-07T08:46:12;27.50;;;23.27;;
703;SDS011;335;48.694;9.120;2024-03-07T08:48:57;33.03;;;28.30;;
703;SDS011;335;48.694;9.120;2024-03-07T08:51:42;30.50;;;25.30;;
703;SDS011;335;48.694;9.120;2024-03-07T08:54:28;27.65;;;24.73;;
703;SDS011;335;48.694;9.120;2024-03-07T08:57:14;29.27;;;25.93;;
703;SDS011;335;48.694;9.120;2024-03-07T09:00:02;29.40;;;26.23;;
703;SDS011;335;48.694;9.120;2024-03-07T09:02:59;29.47;;;25.10;;
703;SDS011;335;48.694;9.120;2024-03-07T09:05:49;29.03;;;25.67;;
703;SDS011;335;48.694;9.120;2024-03-07T09:08:35;30.23;;;26.90;;
703;SDS011;335;48.694;9.120;2024-03-07T09:11:21;29.13;;;25.95;;
703;SDS011;335;48.694;9.120;2024-03-07T09:14:06;29.40;;;25.98;;
703;SDS011;335;48.694;9.120;2024-03-07T09:16:54;27.75;;;24.63;;
703;SDS011;335;48.694;9.120;2024-03-07T09:19:40;31.23;;;25.57;;
703;SDS011;335;48.694;9.120;2024-03-07T09:22:26;30.70;;;26.95;;
703;SDS011;335;48.694;9.120;2024-03-07T09:25:13;31.83;;;27.08;;
703;SDS011;335;48.694;9.120;2024-03-07T09:27:58;32.53;;;27.58;;
703;SDS011;335;48.694;9.120;2024-03-07T09:30:48;32.10;;;26.52;;
703;SDS011;335;48.694;9.120;2024-03-07T09:33:34;32.23;;;26.67;;
703;SDS011;335;48.694;9.120;2024-03-07T09:36:19;30.70;;;27.42;;
703;SDS011;335;48.694;9.120;2024-03-07T09:39:04;28.60;;;24.90;;
703;SDS011;335;48.694;9.120;2024-03-07T09:41:55;31.13;;;25.80;;
703;SDS011;335;48.694;9.120;2024-03-07T09:44:40;28.87;;;25.80;;
703;SDS011;335;48.694;9.120;2024-03-07T09:47:27;30.70;;;25.13;;
703;SDS011;335;48.694;9.120;2024-03-07T09:50:13;32.03;;;25.80;;
703;SDS011;335;48.694;9.120;2024-03-07T09:53:00;27.97;;;24.60;;
703;SDS011;335;48.694;9.120;2024-03-07T09:55:50;29.40;;;25.80;;
703;SDS011;335;48.694;9.120;2024-03-07T09:58:35;28.60;;;25.50;;
703;SDS011;335;48.694;9.120;2024-03-07T10:01:21;32.10;;;26.33;;
703;SDS011;335;48.694;9.120;2024-03-07T10:04:08;29.17;;;24.67;;
703;SDS011;335;48.694;9.120;2024-03-07T10:06:59;28.67;;;25.43;;
703;SDS011;335;48.694;9.120;2024-03-07T10:09:44;30.60;;;26.30;;
703;SDS011;335;48.694;9.120;2024-03-07T10:12:30;30.33;;;25.70;;
703;SDS011;335;48.694;9.120;2024-03-07T10:15:16;28.10;;;24.27;;
703;SDS011;335;48.694;9.120;2024-03-07T10:18:02;29.90;;;26.50;;
703;SDS011;335;48.694;9.120;2024-03-07T10:20:48;28.20;;;24.57;;
703;SDS011;335;48.694;9.120;2024-03-07T10:23:33;29.23;;;25.30;;
703;SDS011;335;48.694;9.120;2024-03-07T10:26:19;27.77;;;23.17;;
703;SDS011;335;48.694;9.120;2024-03-07T10:29:06;27.27;;;23.23;;
703;SDS011;335;48.694;9.120;2024-03-07T10:31:52;25.43;;;22.70;;
703;SDS011;335;48.694;9.120;2024-03-07T10:34:38;26.70;;;22.53;;
703;SDS011;335;48.694;9.120;2024-03-07T10:37:23;25.03;;;22.40;;
703;SDS011;335;48.694;9.120;2024-03-07T10:40:10;25.60;;;22.90;;
703;SDS011;335;48.694;9.120;2024-03-07T10:43:03;26.10;;;22.80;;
703;SDS011;335;48.694;9.120;2024-03-07T10:45:54;26.53;;;23.57;;
703;SDS011;335;48.694;9.120;2024-03-07T10:48:42;22.73;;;20.33;;
703;SDS011;335;48.694;9.120;2024-03-07T10:51:37;20.23;;;17.93;;
703;SDS011;335;48.694;9.120;2024-03-07T11:00:31;20.07;;;17.83;;
703;SDS011;335;48.694;9.120;2024-03-07T11:03:21;22.20;;;19.70;;
703;SDS011;335;48.694;9.120;2024-03-07T11:06:06;20.97;;;18.87;;
703;SDS011;335;48.694;9.120;2024-03-07T11:08:56;20.57;;;18.67;;
703;SDS011;335;48.694;9.120;2024-03-07T11:11:41;21.07;;;19.07;;
703;SDS011;335;48.694;9.120;2024-03-07T11:14:28;20.90;;;19.00;;
703;SDS011;335;48.694;9.120;2024-03-07T11:17:14;24.80;;;22.43;;
703;SDS011;335;48.694;9.120;2024-03-07T11:20:22;23.40;;;21.33;;
703;SDS011;335;48.694;9.120;2024-03-07T11:23:24;25.03;;;22.63;;
703;SDS011;335;48.694;9.120;2024-03-07T11:26:23;24.03;;;21.80;;
703;SDS011;335;48.694;9.120;2024-03-07T11:29:38;26.13;;;22.60;;
703;SDS011;335;48.694;9.120;2024-03-07T11:32:29;24.87;;;22.23;;
703;SDS011;335;48.694;9.120;2024-03-07T11:35:14;25.20;;;22.77;;
703;SDS011;335;48.694;9.120;2024-03-07T11:37:59;26.53;;;23.90;;
703;SDS011;335;48.694;9.120;2024-03-07T11:40:50;25.67;;;23.07;;
703;SDS011;335;48.694;9.120;2024-03-07T11:43:36;27.43;;;24.50;;
703;SDS011;335;48.694;9.120;2024-03-07T11:46:21;28.67;;;25.50;;
703;SDS011;335;48.694;9.120;2024-03-07T11:49:08;29.70;;;23.57;;
703;SDS011;335;48.694;9.120;2024-03-07T11:51:58;26.17;;;22.30;;
703;SDS011;335;48.694;9.120;2024-03-07T11:54:44;26.00;;;23.37;;
703;SDS011;335;48.694;9.120;2024-03-07T11:57:32;27.23;;;24.30;;
703;SDS011;335;48.694;9.120;2024-03-07T12:00:18;31.60;;;22.13;;
703;SDS011;335;48.694;9.120;2024-03-07T12:03:03;25.17;;;22.30;;
703;SDS011;335;48.694;9.120;2024-03-07T12:05:52;24.57;;;21.70;;
703;SDS011;335;48.694;9.120;2024-03-07T12:08:37;24.47;;;21.90;;
703;SDS011;335;48.694;9.120;2024-03-07T12:11:24;25.47;;;22.77;;
703;SDS011;335;48.694;9.120;2024-03-07T12:14:10;29.20;;;23.37;;
703;SDS011;335;48.694;9.120;2024-03-07T12:16:56;26.40;;;23.13;;
703;SDS011;335;48.694;9.120;2024-03-07T12:19:41;26.17;;;23.37;;
703;SDS011;335;48.694;9.120;2024-03-07T12:22:27;24.30;;;21.83;;
703;SDS011;335;48.694;9.120;2024-03-07T12:25:17;26.57;;;23.63;;
703;SDS011;335;48.694;9.120;2024-03-07T12:28:07;24.07;;;21.67;;
703;SDS011;335;48.694;9.120;2024-03-07T12:30:56;25.83;;;22.47;;
703;SDS011;335;48.694;9.120;2024-03-07T12:33:41;28.93;;;25.50;;
703;SDS011;335;48.694;9.120;2024-03-07T12:36:31;29.13;;;25.20;;
703;SDS011;335;48.694;9.120;2024-03-07T12:39:23;27.27;;;24.43;;
703;SDS011;335;48.694;9.120;2024-03-07T12:42:10;27.53;;;24.63;;
703;SDS011;335;48.694;9.120;2024-03-07T12:44:59;30.13;;;27.03;;
703;SDS011;335;48.694;9.120;2024-03-07T12:47:47;30.80;;;26.40;;
703;SDS011;335;48.694;9.120;2024-03-07T12:50:36;25.87;;;23.13;;
703;SDS011;335;48.694;9.120;2024-03-07T12:53:22;23.97;;;21.67;;
703;SDS011;335;48.694;9.120;2024-03-07T12:56:08;28.37;;;25.50;;
703;SDS011;335;48.694;9.120;2024-03-07T12:58:54;26.53;;;23.97;;
703;SDS011;335;48.694;9.120;2024-03-07T13:01:41;27.53;;;24.63;;
703;SDS011;335;48.694;9.120;2024-03-07T13:04:29;29.30;;;26.40;;
703;SDS011;335;48.694;9.120;2024-03-07T13:07:15;30.37;;;27.40;;
703;SDS011;335;48.694;9.120;2024-03-07T13:10:00;31.80;;;28.60;;
703;SDS011;335;48.694;9.120;2024-03-07T13:12:49;30.30;;;27.40;;
703;SDS011;335;48.694;9.120;2024-03-07T13:15:35;29.20;;;26.47;;
703;SDS011;335;48.694;9.120;2024-03-07T13:18:22;30.83;;;27.83;;
703;SDS011;335;48.694;9.120;2024-03-07T13:21:08;31.90;;;28.70;;
703;SDS011;335;48.694;9.120;2024-03-07T13:23:55;28.80;;;25.90;;
703;SDS011;335;48.694;9.120;2024-03-07T13:26:42;30.40;;;27.30;;
703;SDS011;335;48.694;9.120;2024-03-07T13:29:28;28.50;;;25.50;;
703;SDS011;335;48.694;9.120;2024-03-07T13:32:13;31.33;;;26.00;;
703;SDS011;335;48.694;9.120;2024-03-07T13:34:59;29.20;;;25.83;;
703;SDS011;335;48.694;9.120;2024-03-07T13:37:50;29.37;;;26.13;;
703;SDS011;335;48.694;9.120;2024-03-07T13:40:35;29.80;;;26.17;;
703;SDS011;335;48.694;9.120;2024-03-07T13:43:23;32.53;;;25.53;;
703;SDS011;335;48.694;9.120;2024-03-07T13:46:09;30.13;;;26.97;;
703;SDS011;335;48.694;9.120;2024-03-07T13:48:57;31.03;;;27.73;;
703;SDS011;335;48.694;9.120;2024-03-07T13:51:51;30.43;;;27.30;;
703;SDS011;335;48.694;9.120;2024-03-07T13:54:45;29.47;;;26.43;;
703;SDS011;335;48.694;9.120;2024-03-07T14:07:06;29.17;;;26.17;;
703;SDS011;335;48.694;9.120;2024-03-07T14:13:26;29.17;;;26.20;;
703;SDS011;335;48.694;9.120;2024-03-07T14:19:34;30.97;;;27.77;;
703;SDS011;335;48.694;9.120;2024-03-07T14:22:41;29.60;;;26.50;;
703;SDS011;335;48.694;9.120;2024-03-07T14:25:51;29.40;;;26.20;;
703;SDS011;335;48.694;9.120;2024-03-07T14:28:52;28.63;;;25.63;;
703;SDS011;335;48.694;9.120;2024-03-07T14:31:49;29.67;;;26.63;;
703;SDS011;335;48.694;9.120;2024-03-07T14:34:37;26.90;;;24.07;;
703;SDS011;335;48.694;9.120;2024-03-07T14:37:43;30.70;;;27.40;;
703;SDS011;335;48.694;9.120;2024-03-07T14:40:33;30.73;;;26.73;;
703;SDS011;335;48.694;9.120;2024-03-07T14:46:05;28.23;;;25.33;;
703;SDS011;335;48.694;9.120;2024-03-07T14:48:50;29.80;;;26.77;;
703;SDS011;335;48.694;9.120;2024-03-07T14:51:35;28.30;;;25.40;;
703;SDS011;335;48.694;9.120;2024-03-07T14:54:22;30.10;;;27.07;;
703;SDS011;335;48.694;9.120;2024-03-07T14:57:08;30.00;;;26.90;;
703;SDS011;335;48.694;9.120;2024-03-07T14:59:56;29.40;;;26.30;;
703;SDS011;335;48.694;9.120;2024-03-07T15:02:42;27.10;;;24.33;;
703;SDS011;335;48.694;9.120;2024-03-07T15:05:27;27.27;;;24.47;;
703;SDS011;335;48.694;9.120;2024-03-07T15:08:13;30.30;;;26.80;;
703;SDS011;335;48.694;9.120;2024-03-07T15:11:09;30.67;;;27.40;;
703;SDS011;335;48.694;9.120;2024-03-07T15:14:01;30.80;;;27.80;;
703;SDS011;335;48.694;9.120;2024-03-07T15:16:50;37.33;;;27.03;;
703;SDS011;335;48.694;9.120;2024-03-07T15:19:36;30.30;;;26.83;;
703;SDS011;335;48.694;9.120;2024-03-07T15:22:21;32.20;;;28.17;;
703;SDS011;335;48.694;9.120;2024-03-07T15:25:07;32.63;;;29.33;;
703;SDS011;335;48.694;9.120;2024-03-07T15:27:57;28.30;;;25.30;;
703;SDS011;335;48.694;9.120;2024-03-07T15:30:43;27.17;;;24.43;;
703;SDS011;335;48.694;9.120;2024-03-07T15:33:29;28.93;;;25.93;;
703;SDS011;335;48.694;9.120;2024-03-07T15:36:16;31.27;;;28.17;;
703;SDS011;335;48.694;9.120;2024-03-07T15:39:04;30.20;;;27.00;;
703;SDS011;335;48.694;9.120;2024-03-07T15:42:04;28.23;;;25.13;;
703;SDS011;335;48.694;9.120;2024-03-07T15:44:50;29.50;;;26.40;;
703;SDS011;335;48.694;9.120;2024-03-07T15:47:37;27.60;;;24.50;;
703;SDS011;335;48.694;9.120;2024-03-07T15:50:23;28.90;;;25.67;;
703;SDS011;335;48.694;9.120;2024-03-07T15:53:09;29.40;;;25.37;;
703;SDS011;335;48.694;9.120;2024-03-07T15:55:55;30.60;;;26.00;;
703;SDS011;335;48.694;9.120;2024-03-07T15:58:42;27.23;;;24.30;;
703;SDS011;335;48.694;9.120;2024-03-07T16:01:28;27.53;;;24.73;;
703;SDS011;335;48.694;9.120;2024-03-07T16:04:14;27.73;;;24.83;;
703;SDS011;335;48.694;9.120;2024-03-07T16:07:01;28.10;;;24.70;;
703;SDS011;335;48.694;9.120;2024-03-07T16:09:49;29.90;;;25.30;;
703;SDS011;335;48.694;9.120;2024-03-07T16:12:34;26.13;;;23.40;;
703;SDS011;335;48.694;9.120;2024-03-07T16:15:21;27.97;;;24.53;;
703;SDS011;335;48.694;9.120;2024-03-07T16:18:08;28.43;;;25.27;;
703;SDS011;335;48.694;9.120;2024-03-07T16:20:56;26.43;;;23.67;;
703;SDS011;335;48.694;9.120;2024-03-07T16:23:42;29.17;;;26.10;;
703;SDS011;335;48.694;9.120;2024-03-07T16:26:34;28.13;;;24.87;;
703;SDS011;335;48.694;9.120;2024-03-07T16:29:20;30.70;;;25.47;;
703;SDS011;335;48.694;9.120;2024-03-07T16:32:07;26.90;;;24.10;;
703;SDS011;335;48.694;9.120;2024-03-07T16:34:56;26.73;;;23.83;;
703;SDS011;335;48.694;9.120;2024-03-07T16:37:42;33.50;;;26.53;;
703;SDS011;335;48.694;9.120;2024-03-07T16:40:28;25.37;;;22.73;;
703;SDS011;335;48.694;9.120;2024-03-07T16:43:13;28.83;;;23.60;;
703;SDS011;335;48.694;9.120;2024-03-07T16:46:03;28.67;;;23.07;;
703;SDS011;335;48.694;9.120;2024-03-07T16:48:50;26.80;;;23.87;;
703;SDS011;335;48.694;9.120;2024-03-07T16:51:36;24.97;;;22.27;;
703;SDS011;335;48.694;9.120;2024-03-07T16:54:21;24.77;;;22.07;;
703;SDS011;335;48.694;9.120;2024-03-07T16:57:07;29.87;;;24.07;;
703;SDS011;335;48.694;9.120;2024-03-07T16:59:52;25.53;;;22.77;;
703;SDS011;335;48.694;9.120;2024-03-07T17:02:37;28.00;;;25.00;;
703;SDS011;335;48.694;9.120;2024-03-07T17:05:23;26.47;;;23.63;;
703;SDS011;335;48.694;9.120;2024-03-07T17:08:08;27.80;;;23.57;;
703;SDS011;335;48.694;9.120;2024-03-07T17:10:57;26.00;;;22.53;;
703;SDS011;335;48.694;9.120;2024-03-07T17:13:43;25.40;;;22.17;;
703;SDS011;335;48.694;9.120;2024-03-07T17:16:28;23.43;;;21.03;;
703;SDS011;335;48.694;9.120;2024-03-07T17:19:14;27.93;;;23.17;;
703;SDS011;335;48.694;9.120;2024-03-07T17:21:59;28.50;;;24.83;;
703;SDS011;335;48.694;9.120;2024-03-07T17:24:49;25.90;;;22.50;;
703;SDS011;335;48.694;9.120;2024-03-07T17:27:34;25.37;;;22.63;;
703;SDS011;335;48.694;9.120;2024-03-07T17:30:21;27.37;;;23.03;;
703;SDS011;335;48.694;9.120;2024-03-07T17:33:07;24.50;;;21.87;;
703;SDS011;335;48.694;9.120;2024-03-07T17:35:52;30.20;;;24.07;;
703;SDS011;335;48.694;9.120;2024-03-07T17:38:38;28.63;;;23.03;;
703;SDS011;335;48.694;9.120;2024-03-07T17:41:23;24.00;;;21.17;;
703;SDS011;335;48.694;9.120;2024-03-07T17:44:10;24.97;;;22.47;;